sensor_id;sensor_type;location;lat;lon;timestamp;pressure;altitude;pressure_sealevel;temperature;humidity
46722;BME280;32455;43.430;23.136;2023-03-22T00:02:01;97914.69;;;9.42;100.00
46722;BME280;32455;43.430;23.136;2023-03-22T00:04:46;97909.97;;;9.19;100.00
46722;BME280;32455;43.430;23.136;2023-03-22T00:07:31;97911.69;;;9.32;100.00
46722;BME280;32455;43.430;23.136;2023-03-22T00:10:16;97922.97;;;9.59;100.00
46722;BME280;32455;43.430;23.136;2023-03-22T00:13:06;97905.09;;;9.71;100.00
46722;BME280;32455;43.430;23.136;2023-03-22T00:15:54;97925.16;;;9.87;100.00
46722;BME280;32455;43.430;23.136;2023-03-22T00:18:39;97922.16;;;9.58;100.00
46722;BME280;32455;43.430;23.136;2023-03-22T00:21:25;97909.66;;;9.52;100.00
46722;BME280;32455;43.430;23.136;2023-03-22T00:24:11;97904.72;;;9.67;100.00
46722;BME280;32455;43.430;23.136;2023-03-22T00:26:57;97908.44;;;9.85;100.00
46722;BME280;32455;43.430;23.136;2023-03-22T00:29:42;97907.13;;;9.75;100.00
46722;BME280;32455;43.430;23.136;2023-03-22T00:32:28;97924.88;;;9.76;100.00
46722;BME280;32455;43.430;23.136;2023-03-22T00:35:13;97905.91;;;9.71;100.00
46722;BME280;32455;43.430;23.136;2023-03-22T00:37:58;97912.09;;;10.09;100.00
46722;BME280;32455;43.430;23.136;2023-03-22T00:41:11;97911.97;;;9.85;100.00
46722;BME280;32455;43.430;23.136;2023-03-22T00:43:56;97908.16;;;9.74;100.00
46722;BME280;32455;43.430;23.136;2023-03-22T00:46:42;97921.38;;;9.94;100.00
46722;BME280;32455;43.430;23.136;2023-03-22T00:49:28;97912.44;;;9.64;100.00
46722;BME280;32455;43.430;23.136;2023-03-22T00:52:15;97920.16;;;9.53;100.00
46722;BME280;32455;43.430;23.136;2023-03-22T00:55:00;97902.31;;;9.41;100.00
46722;BME280;32455;43.430;23.136;2023-03-22T00:57:45;97900.00;;;9.26;100.00
46722;BME280;32455;43.430;23.136;2023-03-22T01:00:31;97906.31;;;9.13;100.00
46722;BME280;32455;43.430;23.136;2023-03-22T01:03:17;97902.47;;;9.27;100.00
46722;BME280;32455;43.430;23.136;2023-03-22T01:06:06;97899.53;;;9.29;100.00
46722;BME280;32455;43.430;23.136;2023-03-22T01:08:52;97900.69;;;9.58;100.00
46722;BME280;32455;43.430;23.136;2023-03-22T01:11:40;97904.22;;;9.77;100.00
46722;BME280;32455;43.430;23.136;2023-03-22T01:14:27;97904.72;;;9.49;100.00
46722;BME280;32455;43.430;23.136;2023-03-22T01:17:12;97914.59;;;9.55;100.00
46722;BME280;32455;43.430;23.136;2023-03-22T01:19:57;97890.06;;;9.51;100.00
46722;BME280;32455;43.430;23.136;2023-03-22T01:22:43;97904.38;;;9.64;100.00
46722;BME280;32455;43.430;23.136;2023-03-22T01:25:29;97905.84;;;9.78;100.00
46722;BME280;32455;43.430;23.136;2023-03-22T01:28:14;97903.03;;;9.73;100.00
46722;BME280;32455;43.430;23.136;2023-03-22T01:31:01;97908.97;;;9.75;100.00
46722;BME280;32455;43.430;23.136;2023-03-22T01:33:46;97895.81;;;9.73;100.00
46722;BME280;32455;43.430;23.136;2023-03-22T01:36:32;97901.31;;;9.78;100.00
46722;BME280;32455;43.430;23.136;2023-03-22T01:39:17;97902.81;;;9.56;100.00
46722;BME280;32455;43.430;23.136;2023-03-22T01:42:03;97890.75;;;9.22;100.00
46722;BME280;32455;43.430;23.136;2023-03-22T01:45:21;97907.94;;;9.39;100.00
46722;BME280;32455;43.430;23.136;2023-03-22T01:48:18;97902.72;;;9.44;100.00
46722;BME280;32455;43.430;23.136;2023-03-22T01:51:17;97912.03;;;9.60;100.00
46722;BME280;32455;43.430;23.136;2023-03-22T01:54:09;97888.34;;;9.57;100.00
46722;BME280;32455;43.430;23.136;2023-03-22T01:56:56;97901.59;;;9.52;100.00
46722;BME280;32455;43.430;23.136;2023-03-22T01:59:42;97897.28;;;9.51;100.00
46722;BME280;32455;43.430;23.136;2023-03-22T02:02:28;97896.53;;;9.44;100.00
46722;BME280;32455;43.430;23.136;2023-03-22T02:05:14;97899.41;;;8.99;100.00
46722;BME280;32455;43.430;23.136;2023-03-22T02:08:00;97895.16;;;8.66;100.00
46722;BME280;32455;43.430;23.136;2023-03-22T02:10:46;97888.66;;;8.49;100.00
46722;BME280;32455;43.430;23.136;2023-03-22T02:16:55;97902.09;;;8.99;100.00
46722;BME280;32455;43.430;23.136;2023-03-22T02:24:05;97893.28;;;9.17;100.00
46722;BME280;32455;43.430;23.136;2023-03-22T02:29:44;97889.84;;;8.85;100.00
46722;BME280;32455;43.430;23.136;2023-03-22T02:35:36;97894.00;;;9.06;100.00
46722;BME280;32455;43.430;23.136;2023-03-22T02:42:10;97899.25;;;9.19;100.00
46722;BME280;32455;43.430;23.136;2023-03-22T02:45:28;97894.94;;;9.18;100.00
46722;BME280;32455;43.430;23.136;2023-03-22T02:48:28;97893.97;;;9.12;100.00
46722;BME280;32455;43.430;23.136;2023-03-22T02:51:21;97897.59;;;9.18;100.00
46722;BME280;32455;43.430;23.136;2023-03-22T03:00:20;97895.34;;;9.15;100.00
46722;BME280;32455;43.430;23.136;2023-03-22T03:03:10;97888.28;;;9.20;100.00
46722;BME280;32455;43.430;23.136;2023-03-22T03:06:04;97892.25;;;9.18;100.00
46722;BME280;32455;43.430;23.136;2023-03-22T03:08:53;97893.84;;;9.25;100.00
46722;BME280;32455;43.430;23.136;2023-03-22T03:11:41;97896.03;;;9.28;100.00
46722;BME280;32455;43.430;23.136;2023-03-22T03:14:31;97895.78;;;9.12;100.00
46722;BME280;32455;43.430;23.136;2023-03-22T03:23:47;97911.56;;;9.26;100.00
46722;BME280;32455;43.430;23.136;2023-03-22T03:29:46;97914.91;;;9.22;100.00
46722;BME280;32455;43.430;23.136;2023-03-22T03:32:53;97916.75;;;8.96;100.00
46722;BME280;32455;43.430;23.136;2023-03-22T03:35:45;97906.03;;;8.96;100.00
46722;BME280;32455;43.430;23.136;2023-03-22T03:38:35;97911.50;;;9.08;100.00
46722;BME280;32455;43.430;23.136;2023-03-22T03:41:26;97918.09;;;9.12;100.00
46722;BME280;32455;43.430;23.136;2023-03-22T03:44:14;97917.31;;;9.05;100.00
46722;BME280;32455;43.430;23.136;2023-03-22T03:47:01;97920.53;;;9.14;100.00
46722;BME280;32455;43.430;23.136;2023-03-22T03:49:46;97914.19;;;9.08;100.00
46722;BME280;32455;43.430;23.136;2023-03-22T03:52:32;97908.28;;;8.99;100.00
46722;BME280;32455;43.430;23.136;2023-03-22T03:55:18;97925.19;;;9.00;100.00
46722;BME280;32455;43.430;23.136;2023-03-22T03:58:05;97912.75;;;9.06;100.00
46722;BME280;32455;43.430;23.136;2023-03-22T04:00:50;97924.47;;;9.11;100.00
46722;BME280;32455;43.430;23.136;2023-03-22T04:03:36;97929.13;;;9.22;100.00
46722;BME280;32455;43.430;23.136;2023-03-22T04:06:21;97920.53;;;9.14;100.00
46722;BME280;32455;43.430;23.136;2023-03-22T04:09:06;97924.81;;;9.21;100.00
46722;BME280;32455;43.430;23.136;2023-03-22T04:11:52;97924.72;;;9.03;100.00
46722;BME280;32455;43.430;23.136;2023-03-22T04:14:38;97928.41;;;9.09;100.00
46722;BME280;32455;43.430;23.136;2023-03-22T04:17:23;97931.25;;;9.14;100.00
46722;BME280;32455;43.430;23.136;2023-03-22T04:20:10;97935.72;;;9.20;100.00
46722;BME280;32455;43.430;23.136;2023-03-22T04:22:57;97941.81;;;9.09;100.00
46722;BME280;32455;43.430;23.136;2023-03-22T04:25:42;97935.41;;;9.10;100.00
46722;BME280;32455;43.430;23.136;2023-03-22T04:28:34;97925.72;;;9.09;100.00
46722;BME280;32455;43.430;23.136;2023-03-22T04:31:20;97933.69;;;9.15;100.00
46722;BME280;32455;43.430;23.136;2023-03-22T04:34:05;97936.94;;;9.24;100.00
46722;BME280;32455;43.430;23.136;2023-03-22T04:36:50;97938.09;;;9.10;100.00
46722;BME280;32455;43.430;23.136;2023-03-22T04:39:35;97951.06;;;9.13;100.00
46722;BME280;32455;43.430;23.136;2023-03-22T04:42:20;97960.66;;;9.20;100.00
46722;BME280;32455;43.430;23.136;2023-03-22T04:45:06;97935.34;;;9.16;100.00
46722;BME280;32455;43.430;23.136;2023-03-22T04:47:52;97951.59;;;9.21;100.00
46722;BME280;32455;43.430;23.136;2023-03-22T04:50:38;97953.41;;;9.02;100.00
46722;BME280;32455;43.430;23.136;2023-03-22T04:53:23;97945.81;;;8.99;100.00
46722;BME280;32455;43.430;23.136;2023-03-22T04:56:13;97965.06;;;9.15;100.00
46722;BME280;32455;43.430;23.136;2023-03-22T04:58:58;97957.81;;;9.15;100.00
46722;BME280;32455;43.430;23.136;2023-03-22T05:01:43;97965.22;;;9.20;100.00
46722;BME280;32455;43.430;23.136;2023-03-22T05:04:29;97968.28;;;9.23;100.00
46722;BME280;32455;43.430;23.136;2023-03-22T05:07:15;97976.06;;;9.32;100.00
46722;BME280;32455;43.430;23.136;2023-03-22T05:10:01;97967.22;;;9.24;100.00
46722;BME280;32455;43.430;23.136;2023-03-22T05:12:48;97977.09;;;9.31;100.00
46722;BME280;32455;43.430;23.136;2023-03-22T05:15:33;97986.13;;;9.36;100.00
46722;BME280;32455;43.430;23.136;2023-03-22T05:18:21;97983.28;;;9.31;100.00
46722;BME280;32455;43.430;23.136;2023-03-22T05:21:12;97981.81;;;9.35;100.00
46722;BME280;32455;43.430;23.136;2023-03-22T05:23:59;97990.81;;;9.41;100.00
46722;BME280;32455;43.430;23.136;2023-03-22T05:26:45;98002.44;;;9.35;100.00
46722;BME280;32455;43.430;23.136;2023-03-22T05:29:31;97999.66;;;9.16;100.00
46722;BME280;32455;43.430;23.136;2023-03-22T05:32:20;97989.59;;;9.12;100.00
46722;BME280;32455;43.430;23.136;2023-03-22T05:35:09;97983.78;;;9.21;100.00
46722;BME280;32455;43.430;23.136;2023-03-22T05:37:54;98005.03;;;9.41;100.00
46722;BME280;32455;43.430;23.136;2023-03-22T05:40:40;97984.75;;;9.27;100.00
46722;BME280;32455;43.430;23.136;2023-03-22T05:43:25;97990.81;;;9.41;100.00
46722;BME280;32455;43.430;23.136;2023-03-22T05:46:11;97998.66;;;9.42;100.00
46722;BME280;32455;43.430;23.136;2023-03-22T05:48:56;97999.22;;;9.51;100.00
46722;BME280;32455;43.430;23.136;2023-03-22T05:51:42;98007.31;;;9.44;100.00
46722;BME280;32455;43.430;23.136;2023-03-22T05:54:27;98014.13;;;9.40;100.00
46722;BME280;32455;43.430;23.136;2023-03-22T05:57:12;98007.66;;;9.30;100.00
46722;BME280;32455;43.430;23.136;2023-03-22T05:59:58;98016.16;;;9.45;100.00
46722;BME280;32455;43.430;23.136;2023-03-22T06:02:45;98014.84;;;9.54;100.00
46722;BME280;32455;43.430;23.136;2023-03-22T06:05:31;98017.53;;;9.54;100.00
46722;BME280;32455;43.430;23.136;2023-03-22T06:08:17;98016.28;;;9.57;100.00
46722;BME280;32455;43.430;23.136;2023-03-22T06:11:03;98018.28;;;9.61;100.00
46722;BME280;32455;43.430;23.136;2023-03-22T06:13:48;98032.25;;;9.70;100.00
46722;BME280;32455;43.430;23.136;2023-03-22T06:16:33;98027.78;;;9.64;100.00
46722;BME280;32455;43.430;23.136;2023-03-22T06:19:19;98034.94;;;9.70;100.00
46722;BME280;32455;43.430;23.136;2023-03-22T06:22:04;98034.34;;;9.68;100.00
46722;BME280;32455;43.430;23.136;2023-03-22T06:24:50;98044.78;;;9.76;100.00
46722;BME280;32455;43.430;23.136;2023-03-22T06:27:35;98029.53;;;9.76;100.00
46722;BME280;32455;43.430;23.136;2023-03-22T06:30:20;98029.81;;;9.68;100.00
46722;BME280;32455;43.430;23.136;2023-03-22T06:33:06;98050.13;;;9.76;100.00
46722;BME280;32455;43.430;23.136;2023-03-22T06:35:51;98044.78;;;9.76;100.00
46722;BME280;32455;43.430;23.136;2023-03-22T06:38:37;98033.84;;;9.77;100.00
46722;BME280;32455;43.430;23.136;2023-03-22T06:41:22;98040.19;;;9.83;100.00
46722;BME280;32455;43.430;23.136;2023-03-22T06:44:07;98031.91;;;9.85;100.00
46722;BME280;32455;43.430;23.136;2023-03-22T06:46:53;98045.31;;;9.85;100.00
46722;BME280;32455;43.430;23.136;2023-03-22T06:49:38;98063.38;;;9.96;100.00
46722;BME280;32455;43.430;23.136;2023-03-22T06:52:24;98051.69;;;9.90;100.00
46722;BME280;32455;43.430;23.136;2023-03-22T06:55:10;98066.06;;;9.96;100.00
46722;BME280;32455;43.430;23.136;2023-03-22T06:57:54;98058.16;;;9.83;100.00
46722;BME280;32455;43.430;23.136;2023-03-22T07:00:39;98046.88;;;9.74;100.00
46722;BME280;32455;43.430;23.136;2023-03-22T07:03:24;98057.31;;;9.82;100.00
46722;BME280;32455;43.430;23.136;2023-03-22T07:06:10;98064.41;;;9.76;100.00
46722;BME280;32455;43.430;23.136;2023-03-22T07:08:55;98064.59;;;9.75;100.00
46722;BME280;32455;43.430;23.136;2023-03-22T07:11:40;98064.22;;;9.71;100.00
46722;BME280;32455;43.430;23.136;2023-03-22T07:14:25;98067.53;;;9.73;100.00
46722;BME280;32455;43.430;23.136;2023-03-22T07:17:11;98073.47;;;9.75;100.00
46722;BME280;32455;43.430;23.136;2023-03-22T07:19:57;98058.03;;;9.71;100.00
46722;BME280;32455;43.430;23.136;2023-03-22T07:22:42;98063.75;;;9.81;100.00
46722;BME280;32455;43.430;23.136;2023-03-22T07:25:27;98081.41;;;9.89;100.00
46722;BME280;32455;43.430;23.136;2023-03-22T07:28:14;98085.69;;;9.96;100.00
46722;BME280;32455;43.430;23.136;2023-03-22T07:31:05;98076.41;;;9.92;100.00
46722;BME280;32455;43.430;23.136;2023-03-22T07:33:51;98090.22;;;9.96;100.00
46722;BME280;32455;43.430;23.136;2023-03-22T07:36:36;98091.28;;;9.95;100.00
46722;BME280;32455;43.430;23.136;2023-03-22T07:39:22;98085.75;;;9.90;100.00
46722;BME280;32455;43.430;23.136;2023-03-22T07:42:09;98094.53;;;9.97;100.00
46722;BME280;32455;43.430;23.136;2023-03-22T07:44:54;98102.31;;;10.05;100.00
46722;BME280;32455;43.430;23.136;2023-03-22T07:47:39;98086.34;;;9.67;100.00
46722;BME280;32455;43.430;23.136;2023-03-22T07:50:25;98091.59;;;9.80;100.00
46722;BME280;32455;43.430;23.136;2023-03-22T07:53:11;98093.72;;;9.96;100.00
46722;BME280;32455;43.430;23.136;2023-03-22T07:55:57;98096.22;;;9.98;100.00
46722;BME280;32455;43.430;23.136;2023-03-22T07:58:43;98105.81;;;10.06;100.00
46722;BME280;32455;43.430;23.136;2023-03-22T08:01:28;98102.84;;;10.14;100.00
46722;BME280;32455;43.430;23.136;2023-03-22T08:04:13;98108.59;;;10.17;100.00
46722;BME280;32455;43.430;23.136;2023-03-22T08:06:59;98109.94;;;10.08;100.00
46722;BME280;32455;43.430;23.136;2023-03-22T08:09:44;98102.75;;;10.27;100.00
46722;BME280;32455;43.430;23.136;2023-03-22T08:12:30;98101.13;;;10.44;100.00
46722;BME280;32455;43.430;23.136;2023-03-22T08:15:17;98096.66;;;10.38;100.00
46722;BME280;32455;43.430;23.136;2023-03-22T08:18:02;98101.22;;;10.13;100.00
46722;BME280;32455;43.430;23.136;2023-03-22T08:20:58;98093.97;;;10.38;100.00
46722;BME280;32455;43.430;23.136;2023-03-22T08:23:44;98095.59;;;10.58;100.00
46722;BME280;32455;43.430;23.136;2023-03-22T08:26:29;98089.56;;;10.44;100.00
46722;BME280;32455;43.430;23.136;2023-03-22T08:29:15;98093.59;;;10.53;100.00
46722;BME280;32455;43.430;23.136;2023-03-22T08:32:00;98104.56;;;10.70;100.00
46722;BME280;32455;43.430;23.136;2023-03-22T08:34:46;98108.91;;;10.71;100.00
46722;BME280;32455;43.430;23.136;2023-03-22T08:37:31;98104.66;;;10.63;100.00
46722;BME280;32455;43.430;23.136;2023-03-22T08:40:16;98105.03;;;10.67;100.00
46722;BME280;32455;43.430;23.136;2023-03-22T08:43:02;98113.00;;;10.55;100.00
46722;BME280;32455;43.430;23.136;2023-03-22T08:45:47;98111.34;;;10.36;100.00
46722;BME280;32455;43.430;23.136;2023-03-22T08:48:33;98110.84;;;10.45;100.00
46722;BME280;32455;43.430;23.136;2023-03-22T08:51:21;98116.50;;;10.56;100.00
46722;BME280;32455;43.430;23.136;2023-03-22T08:54:06;98122.78;;;10.49;100.00
46722;BME280;32455;43.430;23.136;2023-03-22T08:56:52;98124.19;;;10.34;100.00
46722;BME280;32455;43.430;23.136;2023-03-22T08:59:37;98116.22;;;10.45;100.00
46722;BME280;32455;43.430;23.136;2023-03-22T09:02:26;98136.50;;;10.60;100.00
46722;BME280;32455;43.430;23.136;2023-03-22T09:05:12;98132.88;;;10.54;100.00
46722;BME280;32455;43.430;23.136;2023-03-22T09:07:57;98129.41;;;10.47;100.00
46722;BME280;32455;43.430;23.136;2023-03-22T09:10:42;98123.63;;;10.00;100.00
46722;BME280;32455;43.430;23.136;2023-03-22T09:13:28;98123.09;;;10.16;100.00
46722;BME280;32455;43.430;23.136;2023-03-22T09:16:17;98141.66;;;10.43;100.00
46722;BME280;32455;43.430;23.136;2023-03-22T09:19:03;98133.59;;;10.43;100.00
46722;BME280;32455;43.430;23.136;2023-03-22T09:21:48;98117.22;;;10.26;100.00
46722;BME280;32455;43.430;23.136;2023-03-22T09:24:34;98099.78;;;10.35;100.00
46722;BME280;32455;43.430;23.136;2023-03-22T09:27:20;98126.44;;;10.37;100.00
46722;BME280;32455;43.430;23.136;2023-03-22T09:30:06;98111.56;;;10.34;100.00
46722;BME280;32455;43.430;23.136;2023-03-22T09:32:51;98114.41;;;10.39;100.00
46722;BME280;32455;43.430;23.136;2023-03-22T09:35:41;98132.47;;;10.50;100.00
46722;BME280;32455;43.430;23.136;2023-03-22T09:38:27;98122.63;;;10.44;100.00
46722;BME280;32455;43.430;23.136;2023-03-22T09:41:33;98136.50;;;10.41;100.00
46722;BME280;32455;43.430;23.136;2023-03-22T09:44:27;98134.69;;;10.35;100.00
46722;BME280;32455;43.430;23.136;2023-03-22T09:47:22;98122.59;;;10.26;100.00
46722;BME280;32455;43.430;23.136;2023-03-22T09:50:23;98147.41;;;10.46;100.00
46722;BME280;32455;43.430;23.136;2023-03-22T09:53:12;98144.84;;;10.33;100.00
46722;BME280;32455;43.430;23.136;2023-03-22T10:01:55;98150.88;;;10.28;100.00
46722;BME280;32455;43.430;23.136;2023-03-22T10:04:52;98147.84;;;10.18;100.00
46722;BME280;32455;43.430;23.136;2023-03-22T10:10:51;98144.34;;;10.18;100.00
46722;BME280;32455;43.430;23.136;2023-03-22T10:13:48;98154.53;;;10.34;100.00
46722;BME280;32455;43.430;23.136;2023-03-22T10:16:34;98140.97;;;10.22;100.00
46722;BME280;32455;43.430;23.136;2023-03-22T10:22:16;98163.91;;;10.50;100.00
46722;BME280;32455;43.430;23.136;2023-03-22T10:25:06;98154.94;;;10.38;100.00
46722;BME280;32455;43.430;23.136;2023-03-22T10:27:51;98142.69;;;10.42;100.00
46722;BME280;32455;43.430;23.136;2023-03-22T10:30:39;98153.06;;;10.57;100.00
46722;BME280;32455;43.430;23.136;2023-03-22T10:33:34;98164.06;;;10.55;100.00
46722;BME280;32455;43.430;23.136;2023-03-22T10:36:23;98147.03;;;10.43;100.00
46722;BME280;32455;43.430;23.136;2023-03-22T10:39:31;98151.97;;;10.64;100.00
46722;BME280;32455;43.430;23.136;2023-03-22T10:42:24;98150.38;;;10.57;100.00
46722;BME280;32455;43.430;23.136;2023-03-22T10:45:14;98148.31;;;10.77;100.00
46722;BME280;32455;43.430;23.136;2023-03-22T10:48:08;98140.41;;;10.64;100.00
46722;BME280;32455;43.430;23.136;2023-03-22T10:50:57;98141.69;;;10.80;100.00
46722;BME280;32455;43.430;23.136;2023-03-22T10:53:46;98126.19;;;10.93;100.00
46722;BME280;32455;43.430;23.136;2023-03-22T10:56:32;98128.44;;;10.96;100.00
46722;BME280;32455;43.430;23.136;2023-03-22T10:59:44;98138.38;;;11.26;100.00
46722;BME280;32455;43.430;23.136;2023-03-22T11:02:31;98127.03;;;11.24;100.00
46722;BME280;32455;43.430;23.136;2023-03-22T11:05:23;98130.69;;;11.29;100.00
46722;BME280;32455;43.430;23.136;2023-03-22T11:08:13;98141.53;;;11.23;100.00
46722;BME280;32455;43.430;23.136;2023-03-22T11:10:58;98144.75;;;11.13;100.00
46722;BME280;32455;43.430;23.136;2023-03-22T11:13:57;98135.34;;;11.04;100.00
46722;BME280;32455;43.430;23.136;2023-03-22T11:16:56;98121.38;;;10.84;100.00
46722;BME280;32455;43.430;23.136;2023-03-22T11:19:58;98136.50;;;10.78;100.00
46722;BME280;32455;43.430;23.136;2023-03-22T11:22:47;98125.38;;;10.74;100.00
46722;BME280;32455;43.430;23.136;2023-03-22T11:25:35;98128.25;;;10.80;100.00
46722;BME280;32455;43.430;23.136;2023-03-22T11:28:48;98112.19;;;10.73;100.00
46722;BME280;32455;43.430;23.136;2023-03-22T11:31:52;98127.59;;;11.14;100.00
46722;BME280;32455;43.430;23.136;2023-03-22T11:34:44;98126.66;;;11.20;100.00
46722;BME280;32455;43.430;23.136;2023-03-22T11:37:30;98095.03;;;11.04;100.00
46722;BME280;32455;43.430;23.136;2023-03-22T11:40:27;98115.97;;;11.32;100.00
46722;BME280;32455;43.430;23.136;2023-03-22T11:43:22;98110.25;;;11.40;100.00
46722;BME280;32455;43.430;23.136;2023-03-22T11:46:08;98121.19;;;11.57;100.00
46722;BME280;32455;43.430;23.136;2023-03-22T11:49:00;98114.25;;;11.49;100.00
46722;BME280;32455;43.430;23.136;2023-03-22T11:51:48;98111.84;;;11.71;100.00
46722;BME280;32455;43.430;23.136;2023-03-22T11:54:35;98094.16;;;11.52;100.00
46722;BME280;32455;43.430;23.136;2023-03-22T11:57:25;98098.28;;;11.66;100.00
46722;BME280;32455;43.430;23.136;2023-03-22T12:00:28;98095.59;;;11.66;100.00
46722;BME280;32455;43.430;23.136;2023-03-22T12:03:17;98121.56;;;11.61;100.00
46722;BME280;32455;43.430;23.136;2023-03-22T12:06:10;98111.72;;;11.66;100.00
46722;BME280;32455;43.430;23.136;2023-03-22T12:09:09;98123.03;;;11.87;100.00
46722;BME280;32455;43.430;23.136;2023-03-22T12:12:01;98114.41;;;11.66;100.00
46722;BME280;32455;43.430;23.136;2023-03-22T12:14:54;98125.03;;;11.49;100.00
46722;BME280;32455;43.430;23.136;2023-03-22T12:18:08;98121.06;;;11.64;100.00
46722;BME280;32455;43.430;23.136;2023-03-22T12:20:57;98113.25;;;11.62;100.00
46722;BME280;32455;43.430;23.136;2023-03-22T12:23:42;98113.13;;;11.69;100.00
46722;BME280;32455;43.430;23.136;2023-03-22T12:26:30;98121.09;;;11.75;100.00
46722;BME280;32455;43.430;23.136;2023-03-22T12:29:17;98106.72;;;11.82;100.00
46722;BME280;32455;43.430;23.136;2023-03-22T12:32:11;98099.41;;;12.00;100.00
46722;BME280;32455;43.430;23.136;2023-03-22T12:34:59;98095.53;;;12.08;100.00
46722;BME280;32455;43.430;23.136;2023-03-22T12:37:47;98116.59;;;12.11;100.00
46722;BME280;32455;43.430;23.136;2023-03-22T12:40:37;98106.09;;;12.21;100.00
46722;BME280;32455;43.430;23.136;2023-03-22T12:46:54;98106.88;;;12.45;100.00
46722;BME280;32455;43.430;23.136;2023-03-22T12:49:57;98093.63;;;12.44;100.00
46722;BME280;32455;43.430;23.136;2023-03-22T12:52:49;98113.50;;;12.78;100.00
46722;BME280;32455;43.430;23.136;2023-03-22T12:55:37;98089.84;;;12.68;100.00
46722;BME280;32455;43.430;23.136;2023-03-22T12:58:24;98101.81;;;12.72;100.00
46722;BME280;32455;43.430;23.136;2023-03-22T13:01:15;98102.59;;;13.13;100.00
46722;BME280;32455;43.430;23.136;2023-03-22T13:04:31;98099.06;;;13.24;100.00
46722;BME280;32455;43.430;23.136;2023-03-22T13:07:41;98091.75;;;13.37;100.00
46722;BME280;32455;43.430;23.136;2023-03-22T13:16:15;98078.56;;;13.12;100.00
46722;BME280;32455;43.430;23.136;2023-03-22T13:19:02;98075.78;;;13.35;100.00
46722;BME280;32455;43.430;23.136;2023-03-22T13:21:47;98070.38;;;13.07;100.00
46722;BME280;32455;43.430;23.136;2023-03-22T13:24:33;98077.81;;;12.88;100.00
46722;BME280;32455;43.430;23.136;2023-03-22T13:27:18;98074.66;;;12.91;100.00
46722;BME280;32455;43.430;23.136;2023-03-22T13:30:05;98079.97;;;12.86;100.00
46722;BME280;32455;43.430;23.136;2023-03-22T13:33:24;98086.47;;;12.61;100.00
46722;BME280;32455;43.430;23.136;2023-03-22T13:36:23;98085.09;;;12.47;100.00
46722;BME280;32455;43.430;23.136;2023-03-22T13:39:09;98076.41;;;12.45;100.00
46722;BME280;32455;43.430;23.136;2023-03-22T13:42:07;98086.16;;;12.34;100.00
46722;BME280;32455;43.430;23.136;2023-03-22T13:44:58;98070.47;;;12.19;100.00
46722;BME280;32455;43.430;23.136;2023-03-22T13:48:03;98071.97;;;12.15;100.00
46722;BME280;32455;43.430;23.136;2023-03-22T13:50:51;98062.25;;;12.38;100.00
46722;BME280;32455;43.430;23.136;2023-03-22T13:53:37;98068.69;;;12.37;100.00
46722;BME280;32455;43.430;23.136;2023-03-22T13:56:54;98072.81;;;12.04;100.00
46722;BME280;32455;43.430;23.136;2023-03-22T14:00:00;98064.59;;;12.34;100.00
46722;BME280;32455;43.430;23.136;2023-03-22T14:02:47;98059.66;;;12.43;100.00
46722;BME280;32455;43.430;23.136;2023-03-22T14:05:35;98072.53;;;12.52;100.00
46722;BME280;32455;43.430;23.136;2023-03-22T14:08:25;98048.50;;;12.91;100.00
46722;BME280;32455;43.430;23.136;2023-03-22T14:11:20;98068.19;;;13.32;100.00
46722;BME280;32455;43.430;23.136;2023-03-22T14:14:18;98067.88;;;13.45;100.00
46722;BME280;32455;43.430;23.136;2023-03-22T14:17:26;98065.22;;;13.05;100.00
46722;BME280;32455;43.430;23.136;2023-03-22T14:20:20;98048.72;;;12.61;100.00
46722;BME280;32455;43.430;23.136;2023-03-22T14:23:11;98052.97;;;12.45;100.00
46722;BME280;32455;43.430;23.136;2023-03-22T14:26:15;98051.44;;;13.18;100.00
46722;BME280;32455;43.430;23.136;2023-03-22T14:29:18;98051.50;;;13.52;100.00
46722;BME280;32455;43.430;23.136;2023-03-22T14:32:04;98042.59;;;13.68;100.00
46722;BME280;32455;43.430;23.136;2023-03-22T14:34:51;98043.75;;;13.72;100.00
46722;BME280;32455;43.430;23.136;2023-03-22T14:37:38;98055.53;;;13.21;100.00
46722;BME280;32455;43.430;23.136;2023-03-22T14:40:33;98052.91;;;13.71;100.00
46722;BME280;32455;43.430;23.136;2023-03-22T14:49:01;98051.84;;;13.72;100.00
46722;BME280;32455;43.430;23.136;2023-03-22T14:51:47;98033.94;;;13.66;100.00
46722;BME280;32455;43.430;23.136;2023-03-22T14:54:33;98047.25;;;13.73;100.00
46722;BME280;32455;43.430;23.136;2023-03-22T14:57:23;98039.97;;;13.73;100.00
46722;BME280;32455;43.430;23.136;2023-03-22T15:00:12;98054.88;;;13.76;100.00
46722;BME280;32455;43.430;23.136;2023-03-22T15:03:08;98047.53;;;13.71;100.00
46722;BME280;32455;43.430;23.136;2023-03-22T15:05:57;98056.72;;;13.25;100.00
46722;BME280;32455;43.430;23.136;2023-03-22T15:08:45;98048.22;;;13.33;100.00
46722;BME280;32455;43.430;23.136;2023-03-22T15:11:31;98033.59;;;13.46;100.00
46722;BME280;32455;43.430;23.136;2023-03-22T15:14:16;98045.97;;;13.59;100.00
46722;BME280;32455;43.430;23.136;2023-03-22T15:17:02;98043.81;;;13.44;100.00
46722;BME280;32455;43.430;23.136;2023-03-22T15:19:50;98054.69;;;13.32;100.00
46722;BME280;32455;43.430;23.136;2023-03-22T15:22:36;98057.38;;;13.03;100.00
46722;BME280;32455;43.430;23.136;2023-03-22T15:25:33;98059.31;;;12.79;100.00
46722;BME280;32455;43.430;23.136;2023-03-22T15:28:20;98061.31;;;12.84;100.00
46722;BME280;32455;43.430;23.136;2023-03-22T15:31:16;98053.38;;;12.77;100.00
46722;BME280;32455;43.430;23.136;2023-03-22T15:34:05;98066.16;;;13.11;100.00
46722;BME280;32455;43.430;23.136;2023-03-22T15:36:50;98066.31;;;12.92;100.00
46722;BME280;32455;43.430;23.136;2023-03-22T15:39:39;98076.66;;;13.24;100.00